createdAt,value
2019-03-12T00:00:04.222Z,101587.00
2019-03-12T00:02:37.216Z,101576.00
2019-03-12T00:05:11.018Z,101583.00
2019-03-12T00:07:43.977Z,101578.00
2019-03-12T00:10:16.991Z,101582.00
2019-03-12T00:12:51.148Z,101584.00
2019-03-12T00:15:23.977Z,101581.00
2019-03-12T00:17:57.063Z,101576.00
2019-03-12T00:20:31.087Z,101572.00
2019-03-12T00:23:04.092Z,101570.00
2019-03-12T00:25:36.836Z,101561.00
2019-03-12T00:28:09.976Z,101561.00
2019-03-12T00:30:42.601Z,101549.00
2019-03-12T00:33:17.018Z,101556.00
2019-03-12T00:35:49.926Z,101541.00
2019-03-12T00:38:23.159Z,101540.00
2019-03-12T00:40:56.103Z,101569.00
2019-03-12T00:43:29.210Z,101568.00
2019-03-12T00:46:02.076Z,101561.00
2019-03-12T00:48:37.331Z,101572.00
2019-03-12T00:51:10.673Z,101567.00
2019-03-12T00:53:43.790Z,101563.00
2019-03-12T00:56:18.327Z,101569.00
2019-03-12T00:58:50.996Z,101570.00
2019-03-12T01:01:26.557Z,101563.00
2019-03-12T01:03:59.317Z,101568.00
2019-03-12T01:06:32.312Z,101564.00
2019-03-12T01:09:07.437Z,101564.00
2019-03-12T01:11:40.577Z,101565.00
2019-03-12T01:14:14.906Z,101561.00
2019-03-12T01:16:47.948Z,101559.00
2019-03-12T01:19:20.937Z,101553.00
2019-03-12T01:21:53.631Z,101541.00
2019-03-12T01:24:27.945Z,101536.00
2019-03-12T01:27:00.814Z,101546.00
2019-03-12T01:29:33.719Z,101530.00
2019-03-12T01:32:06.685Z,101547.00
2019-03-12T01:34:39.888Z,101542.00
2019-03-12T01:37:13.951Z,101541.00
2019-03-12T01:39:46.884Z,101530.00
2019-03-12T01:42:19.822Z,101535.00
2019-03-12T01:44:53.157Z,101537.00
2019-03-12T01:47:26.328Z,101541.00
2019-03-12T01:49:59.237Z,101524.00
2019-03-12T01:52:32.660Z,101520.00
2019-03-12T01:55:06.362Z,101506.00
2019-03-12T01:57:42.278Z,101516.00
2019-03-12T02:00:19.632Z,101513.00
2019-03-12T02:02:53.399Z,101505.00
2019-03-12T02:05:26.902Z,101509.00
2019-03-12T02:08:00.512Z,101513.00
2019-03-12T02:10:34.191Z,101506.00
2019-03-12T02:13:08.267Z,101498.00
2019-03-12T02:15:42.774Z,101502.00
2019-03-12T02:18:16.051Z,101498.00
2019-03-12T02:20:50.147Z,101494.00
2019-03-12T02:23:28.817Z,101493.00
2019-03-12T02:26:01.570Z,101485.00
2019-03-12T02:28:36.311Z,101481.00
2019-03-12T02:31:10.941Z,101492.00
2019-03-12T02:33:44.441Z,101478.00
2019-03-12T02:36:19.952Z,101472.00
2019-03-12T02:38:53.021Z,101469.00
2019-03-12T02:41:26.824Z,101463.00
2019-03-12T02:44:01.831Z,101470.00
2019-03-12T02:46:34.854Z,101480.00
2019-03-12T02:49:09.323Z,101483.00
2019-03-12T02:51:42.048Z,101488.00
2019-03-12T02:54:18.939Z,101446.00
2019-03-12T02:56:53.082Z,101452.00
2019-03-12T02:59:27.840Z,101453.00
2019-03-12T03:02:01.209Z,101449.00
2019-03-12T03:04:34.418Z,101450.00
2019-03-12T03:07:10.269Z,101455.00
2019-03-12T03:09:43.588Z,101466.00
2019-03-12T03:12:18.881Z,101468.00
2019-03-12T03:14:52.080Z,101474.00
2019-03-12T03:17:25.956Z,101482.00
2019-03-12T03:20:01.515Z,101490.00
2019-03-12T03:22:35.095Z,101490.00
2019-03-12T03:25:11.126Z,101493.00
2019-03-12T03:27:45.256Z,101490.00
2019-03-12T03:30:25.712Z,101489.00
2019-03-12T03:32:58.827Z,101490.00
2019-03-12T03:35:32.908Z,101486.00
2019-03-12T03:38:06.307Z,101490.00
2019-03-12T03:40:39.325Z,101487.00
2019-03-12T03:43:12.537Z,101485.00
2019-03-12T03:45:46.569Z,101490.00
2019-03-12T03:48:19.714Z,101485.00
2019-03-12T03:50:52.683Z,101493.00
2019-03-12T03:53:26.611Z,101493.00
2019-03-12T03:56:00.207Z,101480.00
2019-03-12T03:58:33.072Z,101482.00
2019-03-12T04:01:05.987Z,101487.00
2019-03-12T04:03:40.524Z,101485.00
2019-03-12T04:06:13.324Z,101470.00
2019-03-12T04:08:46.429Z,101475.00
2019-03-12T04:11:19.344Z,101479.00
2019-03-12T04:13:53.430Z,101481.00
2019-03-12T04:16:26.440Z,101478.00
2019-03-12T04:18:59.752Z,101470.00
2019-03-12T04:21:32.614Z,101477.00
2019-03-12T04:24:05.485Z,101475.00
2019-03-12T04:26:38.842Z,101482.00
2019-03-12T04:29:11.796Z,101468.00
2019-03-12T04:31:44.860Z,101466.00
2019-03-12T04:34:18.133Z,101467.00
2019-03-12T04:36:51.939Z,101471.00
2019-03-12T04:39:24.749Z,101473.00
2019-03-12T04:41:57.806Z,101472.00
2019-03-12T04:44:31.846Z,101467.00
2019-03-12T04:47:04.939Z,101481.00
2019-03-12T04:49:37.941Z,101471.00
2019-03-12T04:52:10.971Z,101472.00
2019-03-12T04:54:45.137Z,101475.00
2019-03-12T04:57:18.520Z,101484.00
2019-03-12T04:59:52.217Z,101477.00
2019-03-12T05:02:25.108Z,101481.00
2019-03-12T05:04:58.101Z,101486.00
2019-03-12T05:07:31.077Z,101485.00
2019-03-12T05:10:03.938Z,101486.00
2019-03-12T05:12:36.849Z,101483.00
2019-03-12T05:15:12.035Z,101487.00
2019-03-12T05:17:44.895Z,101491.00
2019-03-12T05:20:19.851Z,101492.00
2019-03-12T05:22:52.756Z,101496.00
2019-03-12T05:25:26.650Z,101494.00
2019-03-12T05:27:59.495Z,101496.00
2019-03-12T05:30:33.311Z,101499.00
2019-03-12T05:33:06.143Z,101500.00
2019-03-12T05:35:39.175Z,101496.00
2019-03-12T05:38:12.144Z,101494.00
2019-03-12T05:40:47.071Z,101494.00
2019-03-12T05:43:19.890Z,101492.00
2019-03-12T05:45:52.924Z,101494.00
2019-03-12T05:48:25.960Z,101494.00
2019-03-12T05:50:59.071Z,101496.00
2019-03-12T05:53:52.347Z,101496.00
2019-03-12T05:56:26.686Z,101501.00
2019-03-12T05:58:59.698Z,101504.00
2019-03-12T06:01:32.723Z,101506.00
2019-03-12T06:04:05.468Z,101506.00
2019-03-12T06:06:38.683Z,101511.00
2019-03-12T06:09:11.432Z,101506.00
2019-03-12T06:11:44.336Z,101511.00
2019-03-12T06:14:17.394Z,101513.00
2019-03-12T06:16:50.199Z,101522.00
2019-03-12T06:19:23.387Z,101513.00
2019-03-12T06:21:56.764Z,101512.00
2019-03-12T06:24:29.441Z,101515.00
2019-03-12T06:27:02.809Z,101500.00
2019-03-12T06:29:35.730Z,101510.00
2019-03-12T06:32:16.640Z,101502.00
2019-03-12T06:34:50.815Z,101502.00
2019-03-12T06:37:27.844Z,101499.00
2019-03-12T06:40:01.772Z,101508.00
2019-03-12T06:42:37.250Z,101505.00
2019-03-12T06:45:13.548Z,101506.00
2019-03-12T06:47:59.870Z,101504.00
2019-03-12T06:50:33.757Z,101509.00
2019-03-12T06:53:26.318Z,101500.00
2019-03-12T06:56:07.094Z,101506.00
2019-03-12T06:58:53.608Z,101507.00
2019-03-12T07:01:42.952Z,101506.00
2019-03-12T07:04:20.451Z,101503.00
2019-03-12T07:06:54.600Z,101506.00
2019-03-12T07:09:41.070Z,101519.00
2019-03-12T07:12:15.290Z,101520.00
2019-03-12T07:15:05.479Z,101517.00
2019-03-12T07:17:52.218Z,101524.00
2019-03-12T07:20:29.480Z,101526.00
2019-03-12T07:23:18.938Z,101534.00
2019-03-12T07:26:00.878Z,101535.00
2019-03-12T07:28:50.231Z,101540.00
2019-03-12T07:31:19.697Z,101538.00
2019-03-12T07:34:06.113Z,101541.00
2019-03-12T07:36:40.036Z,101535.00
2019-03-12T07:39:18.045Z,101537.00
2019-03-12T07:41:53.488Z,101534.00
2019-03-12T07:44:27.804Z,101534.00
2019-03-12T07:47:02.144Z,101532.00
2019-03-12T07:49:52.884Z,101529.00
2019-03-12T07:52:43.142Z,101539.00
2019-03-12T07:55:18.536Z,101533.00
2019-03-12T07:57:55.299Z,101537.00
2019-03-12T08:00:35.802Z,101532.00
2019-03-12T08:03:22.359Z,101532.00
2019-03-12T08:05:59.987Z,101541.00
2019-03-12T08:08:42.550Z,101548.00
2019-03-12T08:11:25.979Z,101547.00
2019-03-12T08:14:16.438Z,101547.00
2019-03-12T08:17:06.401Z,101549.00
2019-03-12T08:19:40.220Z,101559.00
2019-03-12T08:22:33.841Z,101550.00
2019-03-12T08:25:11.035Z,101551.00
2019-03-12T08:27:51.768Z,101547.00
2019-03-12T08:30:25.765Z,101554.00
2019-03-12T08:33:03.121Z,101571.00
2019-03-12T08:35:53.421Z,101564.00
2019-03-12T08:38:34.579Z,101559.00
2019-03-12T08:41:25.191Z,101569.00
2019-03-12T08:44:03.668Z,101556.00
2019-03-12T08:46:50.032Z,101558.00
2019-03-12T08:49:41.415Z,101563.00
2019-03-12T08:52:23.068Z,101564.00
2019-03-12T08:55:06.786Z,101569.00
2019-03-12T08:57:56.894Z,101563.00
2019-03-12T09:00:38.018Z,101562.00
2019-03-12T09:03:28.243Z,101565.00
2019-03-12T09:06:05.492Z,101564.00
2019-03-12T09:08:48.931Z,101567.00
2019-03-12T09:11:29.549Z,101576.00
2019-03-12T09:14:18.861Z,101572.00
2019-03-12T09:16:56.296Z,101584.00
2019-03-12T09:19:39.790Z,101583.00
2019-03-12T09:22:30.394Z,101593.00
2019-03-12T09:25:04.616Z,101591.00
2019-03-12T09:27:41.574Z,101592.00
2019-03-12T09:30:19.387Z,101597.00
2019-03-12T09:32:56.672Z,101602.00
2019-03-12T09:35:31.124Z,101607.00
2019-03-12T09:38:08.677Z,101614.00
2019-03-12T09:41:01.439Z,101613.00
2019-03-12T09:43:41.602Z,101612.00
2019-03-12T09:46:24.580Z,101617.00
2019-03-12T09:48:59.636Z,101609.00
2019-03-12T09:51:43.368Z,101619.00
2019-03-12T09:54:26.868Z,101623.00
2019-03-12T09:57:07.875Z,101626.00
2019-03-12T09:59:42.320Z,101628.00
2019-03-12T10:02:23.681Z,101623.00
2019-03-12T10:05:01.099Z,101619.00
2019-03-12T10:07:35.150Z,101624.00
2019-03-12T10:10:17.146Z,101618.00
2019-03-12T10:12:51.210Z,101627.00
2019-03-12T10:15:41.884Z,101627.00
2019-03-12T10:18:32.434Z,101621.00
2019-03-12T10:21:09.644Z,101620.00
2019-03-12T10:23:52.868Z,101629.00
2019-03-12T10:26:27.223Z,101625.00
2019-03-12T10:29:07.494Z,101622.00
2019-03-12T10:31:48.063Z,101640.00
2019-03-12T10:34:37.467Z,101632.00
2019-03-12T10:37:23.590Z,101623.00
2019-03-12T10:40:04.507Z,101621.00
2019-03-12T10:42:40.965Z,101627.00
2019-03-12T10:45:25.416Z,101621.00
2019-03-12T10:48:02.114Z,101626.00
2019-03-12T10:50:35.985Z,101625.00
2019-03-12T10:53:09.150Z,101620.00
2019-03-12T10:55:42.435Z,101624.00
2019-03-12T10:58:15.392Z,101617.00
2019-03-12T11:00:48.680Z,101618.00
2019-03-12T11:03:21.602Z,101614.00
2019-03-12T11:05:54.919Z,101607.00
2019-03-12T11:08:28.035Z,101602.00
2019-03-12T11:11:01.305Z,101604.00
2019-03-12T11:13:34.342Z,101605.00
2019-03-12T11:16:09.030Z,101597.00
2019-03-12T11:18:42.189Z,101596.00
2019-03-12T11:21:15.427Z,101603.00
2019-03-12T11:23:48.017Z,101594.00
2019-03-12T11:26:21.280Z,101599.00
2019-03-12T11:28:54.362Z,101591.00
2019-03-12T11:31:27.650Z,101599.00
2019-03-12T11:34:00.535Z,101592.00
2019-03-12T11:36:33.902Z,101599.00
2019-03-12T11:39:07.567Z,101594.00
2019-03-12T11:41:40.908Z,101591.00
2019-03-12T11:44:14.121Z,101594.00
2019-03-12T11:46:47.512Z,101592.00
2019-03-12T11:49:20.515Z,101589.00
2019-03-12T11:51:53.748Z,101583.00
2019-03-12T11:54:26.788Z,101596.00
2019-03-12T11:57:00.110Z,101599.00
2019-03-12T11:59:33.372Z,101603.00
2019-03-12T12:02:06.571Z,101590.00
2019-03-12T12:04:39.750Z,101590.00
2019-03-12T12:07:12.928Z,101598.00
2019-03-12T12:09:45.867Z,101597.00
2019-03-12T12:12:19.134Z,101595.00
2019-03-12T12:14:52.042Z,101593.00
2019-03-12T12:17:25.703Z,101604.00
2019-03-12T12:19:59.037Z,101604.00
2019-03-12T12:22:32.306Z,101598.00
2019-03-12T12:25:05.266Z,101589.00
2019-03-12T12:27:38.564Z,101601.00
2019-03-12T12:30:24.478Z,101600.00
2019-03-12T12:32:57.627Z,101599.00
2019-03-12T12:35:30.466Z,101605.00
2019-03-12T12:38:03.353Z,101599.00
2019-03-12T12:40:36.213Z,101598.00
2019-03-12T12:43:09.513Z,101595.00
2019-03-12T12:45:43.527Z,101595.00
2019-03-12T12:48:16.351Z,101599.00
2019-03-12T12:51:02.354Z,101592.00
2019-03-12T12:53:23.893Z,101592.00
2019-03-12T12:55:57.006Z,101592.00
2019-03-12T12:58:30.019Z,101596.00
2019-03-12T13:01:04.642Z,101597.00
2019-03-12T13:03:37.810Z,101595.00
2019-03-12T13:06:11.300Z,101595.00
2019-03-12T13:08:44.380Z,101597.00
2019-03-12T13:11:17.488Z,101598.00
2019-03-12T13:13:50.349Z,101593.00
2019-03-12T13:16:25.463Z,101602.00
2019-03-12T13:18:57.599Z,101597.00
2019-03-12T13:21:30.642Z,101596.00
2019-03-12T13:24:03.537Z,101592.00
2019-03-12T13:26:37.538Z,101597.00
2019-03-12T13:29:10.366Z,101595.00
2019-03-12T13:31:43.554Z,101594.00
2019-03-12T13:34:16.492Z,101597.00
2019-03-12T13:36:49.955Z,101590.00
2019-03-12T13:39:23.100Z,101598.00
2019-03-12T13:41:56.664Z,101584.00
2019-03-12T13:44:29.381Z,101586.00
2019-03-12T13:47:02.753Z,101582.00
2019-03-12T13:49:35.657Z,101574.00
2019-03-12T13:52:08.615Z,101580.00
2019-03-12T13:54:41.277Z,101581.00
2019-03-12T13:57:14.792Z,101578.00
2019-03-12T13:59:47.881Z,101573.00
2019-03-12T14:02:20.976Z,101576.00
2019-03-12T14:04:54.007Z,101576.00
2019-03-12T14:07:27.788Z,101576.00
2019-03-12T14:10:01.033Z,101578.00
2019-03-12T14:12:34.279Z,101575.00
2019-03-12T14:15:08.387Z,101569.00
2019-03-12T14:17:42.331Z,101577.00
2019-03-12T14:20:25.572Z,101572.00
2019-03-12T14:22:58.712Z,101574.00
2019-03-12T14:25:31.580Z,101569.00
2019-03-12T14:28:05.337Z,101573.00
2019-03-12T14:30:38.977Z,101574.00
2019-03-12T14:33:12.305Z,101572.00
2019-03-12T14:35:51.461Z,101565.00
2019-03-12T14:38:19.490Z,101571.00
2019-03-12T14:40:52.466Z,101570.00
2019-03-12T14:43:25.442Z,101568.00
2019-03-12T14:45:58.670Z,101576.00
2019-03-12T14:48:51.010Z,101575.00
2019-03-12T14:51:30.163Z,101576.00
2019-03-12T14:54:05.400Z,101579.00
2019-03-12T14:56:38.745Z,101577.00
2019-03-12T14:59:11.653Z,101580.00
2019-03-12T15:01:44.705Z,101580.00
2019-03-12T15:04:17.550Z,101575.00
2019-03-12T15:06:50.411Z,101572.00
2019-03-12T15:09:23.535Z,101565.00
2019-03-12T15:11:57.298Z,101560.00
2019-03-12T15:14:30.120Z,101559.00
2019-03-12T15:17:03.571Z,101554.00
2019-03-12T15:19:36.477Z,101553.00
2019-03-12T15:22:09.960Z,101558.00
2019-03-12T15:24:43.028Z,101558.00
2019-03-12T15:27:16.376Z,101569.00
2019-03-12T15:29:49.263Z,101566.00
2019-03-12T15:32:22.722Z,101566.00
2019-03-12T15:34:58.098Z,101567.00
2019-03-12T15:37:31.032Z,101567.00
2019-03-12T15:40:04.092Z,101581.00
2019-03-12T15:42:37.061Z,101586.00
2019-03-12T15:45:12.303Z,101589.00
2019-03-12T15:47:45.036Z,101583.00
2019-03-12T15:50:19.570Z,101588.00
2019-03-12T15:52:52.486Z,101591.00
2019-03-12T15:55:26.107Z,101591.00
2019-03-12T15:57:58.869Z,101590.00
2019-03-12T16:00:32.750Z,101590.00
2019-03-12T16:03:05.618Z,101594.00
2019-03-12T16:05:39.408Z,101597.00
2019-03-12T16:08:13.273Z,101588.00
2019-03-12T16:10:57.196Z,101583.00
2019-03-12T16:13:20.485Z,101592.00
2019-03-12T16:15:53.524Z,101589.00
2019-03-12T16:18:26.415Z,101594.00
2019-03-12T16:20:59.666Z,101592.00
2019-03-12T16:23:32.602Z,101591.00
2019-03-12T16:26:05.716Z,101588.00
2019-03-12T16:28:39.019Z,101582.00
2019-03-12T16:31:12.212Z,101585.00
2019-03-12T16:33:45.116Z,101581.00
2019-03-12T16:36:18.141Z,101578.00
2019-03-12T16:38:51.113Z,101579.00
2019-03-12T16:41:24.012Z,101580.00
2019-03-12T16:43:57.697Z,101583.00
2019-03-12T16:46:30.768Z,101566.00
2019-03-12T16:49:03.771Z,101580.00
2019-03-12T16:51:36.963Z,101575.00
2019-03-12T16:54:09.990Z,101579.00
2019-03-12T16:56:45.428Z,101571.00
2019-03-12T16:59:17.117Z,101576.00
2019-03-12T17:01:50.497Z,101579.00
2019-03-12T17:04:23.615Z,101580.00
2019-03-12T17:06:57.099Z,101569.00
2019-03-12T17:09:29.897Z,101579.00
2019-03-12T17:12:03.011Z,101579.00
2019-03-12T17:14:39.005Z,101579.00
2019-03-12T17:17:10.419Z,101578.00
2019-03-12T17:19:43.158Z,101584.00
2019-03-12T17:22:16.598Z,101589.00
2019-03-12T17:24:50.655Z,101587.00
2019-03-12T17:27:23.908Z,101578.00
2019-03-12T17:29:57.039Z,101580.00
2019-03-12T17:32:30.237Z,101580.00
2019-03-12T17:35:03.382Z,101578.00
2019-03-12T17:37:36.163Z,101579.00
2019-03-12T17:40:13.676Z,101585.00
2019-03-12T17:42:46.645Z,101589.00
2019-03-12T17:45:21.059Z,101597.00
2019-03-12T17:47:54.291Z,101606.00
2019-03-12T17:50:27.367Z,101603.00
2019-03-12T17:53:00.231Z,101613.00
2019-03-12T17:55:33.248Z,101615.00
2019-03-12T17:58:06.040Z,101609.00
2019-03-12T18:00:40.111Z,101615.00
2019-03-12T18:03:13.101Z,101606.00
2019-03-12T18:05:46.327Z,101603.00
2019-03-12T18:08:19.309Z,101606.00
2019-03-12T18:10:52.604Z,101615.00
2019-03-12T18:13:25.725Z,101617.00
2019-03-12T18:15:59.106Z,101626.00
2019-03-12T18:18:31.924Z,101622.00
2019-03-12T18:21:05.165Z,101628.00
2019-03-12T18:23:38.133Z,101623.00
2019-03-12T18:26:12.181Z,101621.00
2019-03-12T18:28:45.429Z,101624.00
2019-03-12T18:31:18.395Z,101640.00
2019-03-12T18:33:51.598Z,101642.00
2019-03-12T18:36:24.689Z,101644.00
2019-03-12T18:39:02.878Z,101645.00
2019-03-12T18:41:32.511Z,101650.00
2019-03-12T18:44:05.614Z,101642.00
2019-03-12T18:46:39.400Z,101639.00
2019-03-12T18:49:12.466Z,101643.00
2019-03-12T18:51:45.507Z,101636.00
2019-03-12T18:54:19.800Z,101652.00
2019-03-12T18:56:52.790Z,101642.00
2019-03-12T18:59:26.793Z,101638.00
2019-03-12T19:01:59.711Z,101634.00
2019-03-12T19:04:33.113Z,101636.00
2019-03-12T19:07:05.809Z,101637.00
2019-03-12T19:09:39.148Z,101642.00
2019-03-12T19:12:12.060Z,101643.00
2019-03-12T19:14:45.402Z,101636.00
2019-03-12T19:17:18.211Z,101644.00
2019-03-12T19:19:51.314Z,101649.00
2019-03-12T19:22:24.193Z,101639.00
2019-03-12T19:24:57.221Z,101633.00
2019-03-12T19:27:30.035Z,101634.00
2019-03-12T19:30:03.117Z,101634.00
2019-03-12T19:32:36.877Z,101628.00
2019-03-12T19:35:11.802Z,101634.00
2019-03-12T19:37:44.567Z,101639.00
2019-03-12T19:40:22.319Z,101634.00
2019-03-12T19:42:55.136Z,101636.00
2019-03-12T19:45:28.195Z,101634.00
2019-03-12T19:48:01.430Z,101639.00
2019-03-12T19:50:35.330Z,101647.00
2019-03-12T19:53:09.312Z,101635.00
2019-03-12T19:55:57.019Z,101640.00
2019-03-12T19:58:29.951Z,101637.00
2019-03-12T20:01:04.788Z,101639.00
2019-03-12T20:03:37.700Z,101648.00
2019-03-12T20:06:10.817Z,101656.00
2019-03-12T20:08:43.956Z,101645.00
2019-03-12T20:11:28.570Z,101653.00
2019-03-12T20:14:29.340Z,101649.00
2019-03-12T20:17:29.850Z,101661.00
2019-03-12T20:20:38.593Z,101662.00
2019-03-12T20:23:42.048Z,101656.00
2019-03-12T20:26:53.561Z,101657.00
2019-03-12T20:29:46.534Z,101648.00
2019-03-12T20:32:32.296Z,101649.00
2019-03-12T20:35:33.948Z,101634.00
2019-03-12T20:38:41.981Z,101660.00
2019-03-12T20:41:39.648Z,101672.00
2019-03-12T20:44:23.262Z,101664.00
2019-03-12T20:47:11.912Z,101666.00
2019-03-12T20:50:15.227Z,101662.00
2019-03-12T20:53:14.519Z,101667.00
2019-03-12T20:56:22.332Z,101667.00
2019-03-12T20:59:11.870Z,101669.00
2019-03-12T21:02:09.738Z,101665.00
2019-03-12T21:05:17.394Z,101662.00
2019-03-12T21:08:25.892Z,101664.00
2019-03-12T21:11:28.226Z,101662.00
2019-03-12T21:14:13.906Z,101662.00
2019-03-12T21:17:11.240Z,101664.00
2019-03-12T21:20:19.262Z,101653.00
2019-03-12T21:22:57.062Z,101643.00
2019-03-12T21:25:50.165Z,101625.00
2019-03-12T21:28:47.249Z,101633.00
2019-03-12T21:31:20.353Z,101643.00
2019-03-12T21:33:53.334Z,101636.00
2019-03-12T21:36:26.402Z,101637.00
2019-03-12T21:38:59.543Z,101638.00
2019-03-12T21:41:32.704Z,101637.00
2019-03-12T21:44:07.807Z,101640.00
2019-03-12T21:46:40.967Z,101650.00
2019-03-12T21:49:14.113Z,101658.00
2019-03-12T21:51:47.254Z,101641.00
2019-03-12T21:54:20.462Z,101632.00
2019-03-12T21:56:53.300Z,101637.00
2019-03-12T21:59:27.546Z,101648.00
2019-03-12T22:02:00.509Z,101661.00
2019-03-12T22:04:33.902Z,101654.00
2019-03-12T22:07:07.068Z,101654.00
2019-03-12T22:09:40.107Z,101655.00
2019-03-12T22:12:13.258Z,101635.00
2019-03-12T22:14:48.203Z,101644.00
2019-03-12T22:17:22.283Z,101624.00
2019-03-12T22:19:55.330Z,101651.00
2019-03-12T22:22:32.598Z,101652.00
2019-03-12T22:25:05.587Z,101631.00
2019-03-12T22:27:39.763Z,101628.00
2019-03-12T22:30:22.447Z,101627.00
2019-03-12T22:32:56.660Z,101650.00
2019-03-12T22:35:30.043Z,101652.00
2019-03-12T22:38:04.005Z,101648.00
2019-03-12T22:40:38.163Z,101634.00
2019-03-12T22:43:10.945Z,101647.00
2019-03-12T22:45:44.999Z,101651.00
2019-03-12T22:48:19.231Z,101639.00
2019-03-12T22:50:52.038Z,101651.00
2019-03-12T22:53:26.914Z,101634.00
2019-03-12T22:55:59.826Z,101617.00
2019-03-12T22:58:34.838Z,101604.00
2019-03-12T23:01:09.181Z,101607.00
2019-03-12T23:03:43.294Z,101615.00
2019-03-12T23:06:15.987Z,101612.00
2019-03-12T23:08:48.984Z,101602.00
2019-03-12T23:11:22.205Z,101602.00
2019-03-12T23:13:55.513Z,101607.00
2019-03-12T23:16:29.851Z,101607.00
2019-03-12T23:19:02.852Z,101600.00
2019-03-12T23:21:38.273Z,101608.00
2019-03-12T23:24:13.369Z,101613.00
2019-03-12T23:26:47.340Z,101605.00
2019-03-12T23:29:20.637Z,101615.00
2019-03-12T23:31:54.580Z,101616.00
2019-03-12T23:34:28.804Z,101620.00
2019-03-12T23:37:02.228Z,101620.00
2019-03-12T23:39:35.153Z,101614.00
2019-03-12T23:42:08.634Z,101602.00
2019-03-12T23:44:41.530Z,101608.00
2019-03-12T23:47:14.450Z,101605.00
2019-03-12T23:49:48.706Z,101595.00
2019-03-12T23:52:21.519Z,101604.00
2019-03-12T23:54:55.951Z,101589.00
2019-03-12T23:57:29.643Z,101596.00
